Time;durP1;ratioP1;P1;durP2;ratioP2;P2;SDS_P1;SDS_P2;PMS_P1;PMS_P2;Temp;Humidity;BMP_temperature;BMP_pressure;BME280_temperature;BME280_humidity;BME280_pressure;Samples;Min_cycle;Max_cycle;Signal;HPM_P1;HPM_P2
2023/11/16 00:00:56;;;;;;;;;;;;;;;24.26;35.24;101559.84;4197026;28;20376;-62
2023/11/16 00:02:59;;;;;;;;;;;;;;;24.26;35.48;101551.78;4198235;28;19959;-61
2023/11/16 00:05:02;;;;;;;;;;;;;;;24.27;35.43;101555.34;4198289;28;20411;-61
2023/11/16 00:07:06;;;;;;;;;;;;;;;24.26;35.13;101551.78;4196381;28;20003;-60
2023/11/16 00:09:09;;;;;;;;;;;;;;;24.25;35.48;101552.75;4197715;28;19931;-61
2023/11/16 00:11:11;;;;;;;;;;;;;;;24.24;35.39;101549.22;4197951;28;20301;-61
2023/11/16 00:13:14;;;;;;;;;;;;;;;24.24;35.25;101542.97;4198102;28;19924;-61
2023/11/16 00:15:15;;;;;;;;;;;;;;;24.23;35.53;101539.44;4196828;28;20021;-62
2023/11/16 00:17:18;;;;;;;;;;;;;;;24.20;35.58;101522.72;4197968;28;19920;-61
2023/11/16 00:19:23;;;;;;;;;;;;;;;24.27;35.44;101525.78;4197988;28;20015;-61
2023/11/16 00:21:26;;;;;;;;;;;;;;;24.28;35.45;101520.25;4197374;28;19920;-61
2023/11/16 00:23:27;;;;;;;;;;;;;;;24.31;35.44;101516.47;4197902;28;19966;-61
2023/11/16 00:25:29;;;;;;;;;;;;;;;24.31;35.54;101511.09;4197831;28;20371;-61
2023/11/16 00:27:31;;;;;;;;;;;;;;;24.30;35.24;101498.63;4197571;28;19921;-61
2023/11/16 00:29:33;;;;;;;;;;;;;;;24.29;35.36;101499.59;4197514;28;19924;-61
2023/11/16 00:31:34;;;;;;;;;;;;;;;24.30;35.48;101493.25;4197647;28;19943;-61
2023/11/16 00:33:36;;;;;;;;;;;;;;;24.28;35.31;101488.00;4197682;28;19924;-61
2023/11/16 00:35:40;;;;;;;;;;;;;;;24.28;35.27;101481.75;4197398;28;20020;-61
2023/11/16 00:37:41;;;;;;;;;;;;;;;24.27;35.45;101488.97;4197202;28;19946;-60
2023/11/16 00:39:43;;;;;;;;;;;;;;;24.21;35.42;101473.34;4197568;28;20362;-61
2023/11/16 00:41:46;;;;;;;;;;;;;;;24.30;35.18;101475.25;4197519;28;19920;-61
2023/11/16 00:43:48;;;;;;;;;;;;;;;24.31;35.12;101460.00;4197433;28;19927;-61
2023/11/16 00:45:50;;;;;;;;;;;;;;;24.32;35.29;101462.56;4197395;28;19946;-61
2023/11/16 00:47:52;;;;;;;;;;;;;;;24.34;35.26;101465.97;4197329;28;19924;-61
2023/11/16 00:49:54;;;;;;;;;;;;;;;24.35;35.48;101454.25;4197094;28;19924;-61
2023/11/16 00:51:56;;;;;;;;;;;;;;;24.34;35.24;101449.84;4197101;28;19943;-61
2023/11/16 00:53:58;;;;;;;;;;;;;;;24.33;35.40;101444.63;4197338;28;19967;-61
2023/11/16 00:55:59;;;;;;;;;;;;;;;24.33;35.30;101455.38;4197137;28;19967;-61
2023/11/16 00:58:05;;;;;;;;;;;;;;;24.33;35.13;101458.06;4197104;28;19966;-61
2023/11/16 01:00:10;;;;;;;;;;;;;;;24.32;35.62;101459.88;4197242;28;19960;-61
2023/11/16 01:02:13;;;;;;;;;;;;;;;24.31;35.29;101446.56;4196963;28;19966;-61
2023/11/16 01:04:15;;;;;;;;;;;;;;;24.33;35.23;101450.00;4197136;28;19921;-61
2023/11/16 01:06:16;;;;;;;;;;;;;;;24.35;35.24;101445.31;4196735;28;19920;-61
2023/11/16 01:08:21;;;;;;;;;;;;;;;24.37;35.21;101446.06;4197276;28;20382;-61
2023/11/16 01:10:24;;;;;;;;;;;;;;;24.38;35.47;101437.84;4197084;28;19971;-61
2023/11/16 01:12:28;;;;;;;;;;;;;;;24.37;35.50;101430.75;4196974;28;19920;-62
2023/11/16 01:14:30;;;;;;;;;;;;;;;24.38;35.28;101435.16;4197148;28;19920;-62
2023/11/16 01:16:41;;;;;;;;;;;;;;;24.37;35.19;101424.53;4197030;28;20370;-62
2023/11/16 01:18:46;;;;;;;;;;;;;;;24.36;35.60;101421.03;4196983;28;19928;-62
2023/11/16 01:20:48;;;;;;;;;;;;;;;24.36;35.35;101425.53;4196548;28;19928;-62
2023/11/16 01:23:01;;;;;;;;;;;;;;;24.35;35.52;101422.00;4196854;28;19920;-62
2023/11/16 01:25:14;;;;;;;;;;;;;;;24.35;35.35;101418.44;4196948;28;19974;-61
2023/11/16 01:27:18;;;;;;;;;;;;;;;24.36;35.42;101412.09;4196792;28;19928;-61
2023/11/16 01:29:20;;;;;;;;;;;;;;;24.37;35.47;101413.78;4196701;28;19996;-62
2023/11/16 01:31:22;;;;;;;;;;;;;;;24.38;35.26;101410.13;4196849;28;19946;-61
2023/11/16 01:33:23;;;;;;;;;;;;;;;24.39;35.45;101410.00;4196754;28;19986;-61
2023/11/16 01:35:25;;;;;;;;;;;;;;;24.40;35.26;101405.50;4196137;28;19920;-61
2023/11/16 01:37:27;;;;;;;;;;;;;;;24.41;35.21;101399.09;4196784;28;20007;-61
2023/11/16 01:39:33;;;;;;;;;;;;;;;24.40;35.50;101398.25;4196390;28;19924;-61
2023/11/16 01:41:34;;;;;;;;;;;;;;;24.40;35.43;101402.78;4196377;28;19920;-61
2023/11/16 01:43:38;;;;;;;;;;;;;;;24.40;35.45;101402.78;4196525;28;19927;-62
2023/11/16 01:45:41;;;;;;;;;;;;;;;24.40;35.50;101394.72;4196720;28;19920;-62
2023/11/16 01:47:43;;;;;;;;;;;;;;;24.39;35.40;101393.03;4196808;28;19960;-62
2023/11/16 01:49:45;;;;;;;;;;;;;;;24.38;35.49;101402.06;4196278;28;19924;-62
2023/11/16 01:51:47;;;;;;;;;;;;;;;24.39;35.58;101396.56;4196494;28;19970;-62
2023/11/16 01:53:51;;;;;;;;;;;;;;;24.40;35.37;101390.19;4196711;28;19924;-62
2023/11/16 01:55:54;;;;;;;;;;;;;;;24.43;35.44;101394.47;4196553;28;19925;-62
2023/11/16 01:57:56;;;;;;;;;;;;;;;24.44;35.45;101384.56;4196605;28;20314;-62
2023/11/16 01:59:58;;;;;;;;;;;;;;;24.44;35.19;101389.94;4196657;28;20338;-62
2023/11/16 02:02:00;;;;;;;;;;;;;;;24.44;35.47;101380.03;4196551;28;19920;-60
2023/11/16 02:04:04;;;;;;;;;;;;;;;24.44;35.47;101382.72;4196204;28;19943;-61
2023/11/16 02:06:11;;;;;;;;;;;;;;;24.44;35.21;101384.56;4196451;28;19955;-62
2023/11/16 02:08:13;;;;;;;;;;;;;;;24.42;35.21;101383.84;4196376;28;19920;-62
2023/11/16 02:10:14;;;;;;;;;;;;;;;24.43;35.21;101388.25;4196147;28;20326;-61
2023/11/16 02:12:16;;;;;;;;;;;;;;;24.43;35.56;101380.19;4196367;28;20015;-62
2023/11/16 02:14:18;;;;;;;;;;;;;;;24.42;35.22;101381.16;4196509;28;19926;-62
2023/11/16 02:16:19;;;;;;;;;;;;;;;24.45;35.29;101386.25;4196532;28;19970;-61
2023/11/16 02:18:25;;;;;;;;;;;;;;;24.45;35.61;101384.44;4199613;28;20307;-61
2023/11/16 02:20:29;;;;;;;;;;;;;;;24.47;35.43;101376.22;4199589;28;19927;-62
2023/11/16 02:22:30;;;;;;;;;;;;;;;24.48;35.36;101372.56;4199696;28;19959;-62
2023/11/16 02:24:33;;;;;;;;;;;;;;;24.47;35.41;101368.16;4199686;28;20007;-61
2023/11/16 02:26:36;;;;;;;;;;;;;;;24.47;35.26;101354.72;4199709;28;20330;-61
2023/11/16 02:28:38;;;;;;;;;;;;;;;24.46;35.40;101358.38;4199854;28;20342;-61
2023/11/16 02:30:39;;;;;;;;;;;;;;;24.46;35.17;101353.00;4199458;28;19925;-61
2023/11/16 02:32:41;;;;;;;;;;;;;;;24.45;35.29;101348.59;4199254;28;20014;-61
2023/11/16 02:34:43;;;;;;;;;;;;;;;24.45;35.59;101357.56;4198326;28;19943;-60
2023/11/16 02:36:45;;;;;;;;;;;;;;;24.45;35.42;101354.84;4199380;28;19921;-61
2023/11/16 02:38:46;;;;;;;;;;;;;;;24.46;35.52;101356.56;4199607;28;19927;-62
2023/11/16 02:40:51;;;;;;;;;;;;;;;24.46;35.53;101347.63;4199476;28;20370;-61
2023/11/16 02:42:54;;;;;;;;;;;;;;;24.49;35.49;101342.00;4199080;28;19920;-62
2023/11/16 02:44:57;;;;;;;;;;;;;;;24.50;35.51;101346.41;4199208;28;20310;-61
2023/11/16 02:46:59;;;;;;;;;;;;;;;24.51;35.48;101346.28;4198919;28;20018;-61
2023/11/16 02:49:01;;;;;;;;;;;;;;;24.50;35.18;101339.19;4199357;28;20249;-60
2023/11/16 02:51:03;;;;;;;;;;;;;;;24.48;35.15;101327.69;4198929;28;19955;-61
2023/11/16 02:53:05;;;;;;;;;;;;;;;24.50;35.24;101333.81;4199300;28;20390;-61
2023/11/16 02:55:08;;;;;;;;;;;;;;;24.48;35.17;101333.06;4199323;28;19955;-61
2023/11/16 02:57:09;;;;;;;;;;;;;;;24.47;35.31;101319.75;4198989;28;19924;-60
2023/11/16 02:59:13;;;;;;;;;;;;;;;24.39;35.33;101310.50;4199276;28;20003;-61
2023/11/16 03:01:15;;;;;;;;;;;;;;;24.47;35.42;101327.84;4198966;28;19928;-61
2023/11/16 03:03:17;;;;;;;;;;;;;;;24.48;35.17;101325.00;4199201;28;20310;-61
2023/11/16 03:05:21;;;;;;;;;;;;;;;24.51;35.53;101318.50;4199120;28;19953;-62
2023/11/16 03:07:22;;;;;;;;;;;;;;;24.52;35.40;101317.53;4198865;28;20102;-61
2023/11/16 03:09:33;;;;;;;;;;;;;;;24.53;35.40;101308.47;4198874;28;20417;-61
2023/11/16 03:11:35;;;;;;;;;;;;;;;24.52;35.29;101307.66;4198997;28;19920;-61
2023/11/16 03:13:36;;;;;;;;;;;;;;;24.54;35.56;101308.34;4198907;28;19982;-60
2023/11/16 03:15:38;;;;;;;;;;;;;;;24.52;35.45;101304.97;4198332;28;19920;-61
2023/11/16 03:17:43;;;;;;;;;;;;;;;24.51;35.28;101289.81;4199005;28;19971;-62
2023/11/16 03:19:45;;;;;;;;;;;;;;;24.50;35.51;101296.16;4197592;28;20038;-61
2023/11/16 03:21:49;;;;;;;;;;;;;;;24.50;35.46;101279.19;4198831;28;19920;-62
2023/11/16 03:23:50;;;;;;;;;;;;;;;24.50;35.45;101276.50;4198811;28;19924;-61
2023/11/16 03:25:54;;;;;;;;;;;;;;;24.50;35.18;101265.75;4198787;28;19942;-61
2023/11/16 03:27:55;;;;;;;;;;;;;;;24.51;35.29;101270.97;4197909;28;19920;-62
2023/11/16 03:29:57;;;;;;;;;;;;;;;24.53;35.21;101270.84;4197707;28;19956;-61
2023/11/16 03:32:00;;;;;;;;;;;;;;;24.53;35.49;101260.94;4198743;28;20427;-62
2023/11/16 03:34:04;;;;;;;;;;;;;;;24.56;35.25;101260.66;4198194;28;19984;-62
2023/11/16 03:36:05;;;;;;;;;;;;;;;24.55;35.16;101250.06;4198406;28;20003;-62
2023/11/16 03:38:07;;;;;;;;;;;;;;;24.54;35.22;101246.50;4198506;28;19986;-61
2023/11/16 03:40:09;;;;;;;;;;;;;;;24.54;35.22;101235.75;4198561;28;19927;-62
2023/11/16 03:42:11;;;;;;;;;;;;;;;24.53;35.46;101230.50;4198610;28;20373;-62
2023/11/16 03:44:13;;;;;;;;;;;;;;;24.52;35.45;101234.16;4198407;28;19974;-62
2023/11/16 03:46:16;;;;;;;;;;;;;;;24.51;35.39;101236.03;4198057;28;19921;-62
2023/11/16 03:48:18;;;;;;;;;;;;;;;24.51;35.51;101229.78;4198516;28;19926;-62
2023/11/16 03:50:20;;;;;;;;;;;;;;;24.52;35.47;101224.28;4198211;28;20080;-62
2023/11/16 03:52:21;;;;;;;;;;;;;;;24.54;35.43;101222.28;4198441;28;20337;-62
2023/11/16 03:54:23;;;;;;;;;;;;;;;24.55;35.45;101221.31;4198240;28;19920;-62
2023/11/16 03:56:25;;;;;;;;;;;;;;;24.56;35.07;101217.66;4198234;28;19954;-62
2023/11/16 03:58:26;;;;;;;;;;;;;;;24.56;35.15;101214.94;4198240;28;20395;-62
2023/11/16 04:00:31;;;;;;;;;;;;;;;24.56;35.14;101208.75;4197786;28;20031;-62
2023/11/16 04:02:33;;;;;;;;;;;;;;;24.56;35.27;101206.88;4198083;28;20385;-62
2023/11/16 04:04:35;;;;;;;;;;;;;;;24.54;35.20;101200.78;4198096;28;20359;-61
2023/11/16 04:06:37;;;;;;;;;;;;;;;24.54;35.26;101200.78;4198008;28;20345;-62
2023/11/16 04:08:39;;;;;;;;;;;;;;;24.53;35.50;101188.34;4198070;28;20306;-61
2023/11/16 04:10:40;;;;;;;;;;;;;;;24.53;35.28;101179.41;4197956;28;20025;-61
2023/11/16 04:12:42;;;;;;;;;;;;;;;24.54;35.15;101183.81;4197836;28;19924;-62
2023/11/16 04:14:43;;;;;;;;;;;;;;;24.54;35.41;101190.03;4197578;28;19970;-62
2023/11/16 04:16:52;;;;;;;;;;;;;;;24.56;35.28;101187.22;4197919;28;20275;-61
2023/11/16 04:18:55;;;;;;;;;;;;;;;24.59;35.09;101183.41;4197905;28;19930;-61
2023/11/16 04:20:57;;;;;;;;;;;;;;;24.58;35.30;101185.22;4197802;28;19926;-61
2023/11/16 04:22:59;;;;;;;;;;;;;;;24.60;35.41;101171.66;4197424;28;19920;-59
2023/11/16 04:25:04;;;;;;;;;;;;;;;24.59;35.38;101173.50;4197633;28;19924;-63
2023/11/16 04:27:07;;;;;;;;;;;;;;;24.59;35.50;101164.59;4197831;28;19952;-61
2023/11/16 04:29:11;;;;;;;;;;;;;;;24.57;34.97;101159.34;4197288;28;19967;-60
2023/11/16 04:31:13;;;;;;;;;;;;;;;24.56;35.36;101163.84;4197698;28;20130;-60
2023/11/16 04:33:14;;;;;;;;;;;;;;;24.55;35.18;101153.25;4197771;28;20403;-60
2023/11/16 04:35:17;;;;;;;;;;;;;;;24.56;35.26;101147.72;4196140;28;19927;-61
2023/11/16 04:37:19;;;;;;;;;;;;;;;24.59;35.25;101137.69;4197550;28;19920;-61
2023/11/16 04:39:21;;;;;;;;;;;;;;;24.58;35.35;101123.38;4197387;28;19974;-61
2023/11/16 04:41:26;;;;;;;;;;;;;;;24.60;35.42;101117.88;4197570;28;20346;-60
2023/11/16 04:43:30;;;;;;;;;;;;;;;24.60;35.31;101115.19;4197166;28;19920;-60
2023/11/16 04:45:32;;;;;;;;;;;;;;;24.60;35.12;101113.34;4197231;28;19928;-60
2023/11/16 04:47:37;;;;;;;;;;;;;;;24.60;35.46;101110.66;4197457;28;19920;-60
2023/11/16 04:49:41;;;;;;;;;;;;;;;24.60;35.28;101113.34;4197485;28;19920;-60
2023/11/16 04:51:44;;;;;;;;;;;;;;;24.60;35.31;101109.81;4197543;28;20379;-60
2023/11/16 04:53:46;;;;;;;;;;;;;;;24.58;35.14;101092.97;4196218;28;20012;-60
2023/11/16 04:55:47;;;;;;;;;;;;;;;24.57;35.27;101078.69;4197176;28;19920;-60
2023/11/16 04:57:49;;;;;;;;;;;;;;;24.57;35.01;101070.59;4196887;28;19920;-60
2023/11/16 04:59:53;;;;;;;;;;;;;;;24.57;35.37;101065.22;4197223;28;20028;-60
2023/11/16 05:01:57;;;;;;;;;;;;;;;24.57;35.38;101065.22;4197076;28;19931;-61
2023/11/16 05:03:58;;;;;;;;;;;;;;;24.59;35.32;101074.00;4197188;28;19921;-60
2023/11/16 05:06:00;;;;;;;;;;;;;;;24.61;35.31;101076.56;4197307;28;19926;-60
2023/11/16 05:08:02;;;;;;;;;;;;;;;24.62;35.10;101070.16;4196959;28;19920;-60
2023/11/16 05:10:07;;;;;;;;;;;;;;;24.62;35.04;101064.78;4197215;28;19928;-60
2023/11/16 05:12:08;;;;;;;;;;;;;;;24.60;35.28;101056.88;4196729;28;19942;-60
2023/11/16 05:14:10;;;;;;;;;;;;;;;24.61;35.17;101049.69;4197105;28;19924;-60
2023/11/16 05:16:12;;;;;;;;;;;;;;;24.61;35.34;101050.50;4197034;28;20003;-60
2023/11/16 05:18:14;;;;;;;;;;;;;;;24.59;35.30;101041.72;4197006;28;20015;-60
2023/11/16 05:20:18;;;;;;;;;;;;;;;24.58;35.36;101040.00;4197053;28;19920;-60
2023/11/16 05:22:21;;;;;;;;;;;;;;;24.56;35.31;101036.63;4196786;28;20097;-61
2023/11/16 05:24:24;;;;;;;;;;;;;;;24.59;35.36;101027.44;4195584;28;19920;-60
2023/11/16 05:26:25;;;;;;;;;;;;;;;24.60;35.40;101038.03;4196860;28;20375;-60
2023/11/16 05:28:27;;;;;;;;;;;;;;;24.61;35.35;101030.84;4196728;28;19920;-60
2023/11/16 05:30:29;;;;;;;;;;;;;;;24.61;35.32;101031.69;4195530;28;19928;-60
2023/11/16 05:32:31;;;;;;;;;;;;;;;24.62;35.38;101035.22;4195836;28;19925;-60
2023/11/16 05:34:33;;;;;;;;;;;;;;;24.63;35.53;101032.41;4196748;28;19924;-60
2023/11/16 05:36:35;;;;;;;;;;;;;;;24.62;35.11;101027.13;4196921;28;19957;-60
2023/11/16 05:38:37;;;;;;;;;;;;;;;24.61;35.17;101030.84;4196770;28;19938;-59
2023/11/16 05:40:39;;;;;;;;;;;;;;;24.60;35.44;101021.91;4196420;28;19952;-61
2023/11/16 05:42:40;;;;;;;;;;;;;;;24.58;35.24;101023.03;4196762;28;20012;-60
2023/11/16 05:44:44;;;;;;;;;;;;;;;24.59;35.31;101027.44;4196487;28;19981;-60
2023/11/16 05:46:46;;;;;;;;;;;;;;;24.59;35.45;101014.81;4196619;28;20098;-60
2023/11/16 05:48:47;;;;;;;;;;;;;;;24.60;35.48;101002.25;4196503;28;19920;-59
2023/11/16 05:50:49;;;;;;;;;;;;;;;24.61;35.37;100994.03;4194991;28;19927;-59
2023/11/16 05:52:52;;;;;;;;;;;;;;;24.62;35.43;100967.97;4196185;28;20006;-59
2023/11/16 05:54:53;;;;;;;;;;;;;;;24.63;35.37;100962.47;4196350;28;19920;-60
2023/11/16 05:56:58;;;;;;;;;;;;;;;24.63;35.18;100953.56;4196546;28;19920;-60
2023/11/16 05:59:00;;;;;;;;;;;;;;;24.62;35.16;100944.66;4196594;28;19927;-60
2023/11/16 06:01:01;;;;;;;;;;;;;;;24.63;35.45;100938.28;4196530;28;20007;-59
2023/11/16 06:03:04;;;;;;;;;;;;;;;24.61;35.12;100934.88;4196423;28;19920;-59
2023/11/16 06:05:08;;;;;;;;;;;;;;;24.61;35.12;100925.97;4196636;28;19920;-59
2023/11/16 06:07:10;;;;;;;;;;;;;;;24.59;35.49;100917.19;4196636;28;19920;-59
2023/11/16 06:09:14;;;;;;;;;;;;;;;24.57;35.38;100911.97;4196342;28;19924;-60
2023/11/16 06:11:15;;;;;;;;;;;;;;;24.58;35.37;100905.56;4194982;28;19924;-60
2023/11/16 06:13:22;;;;;;;;;;;;;;;24.60;35.43;100903.59;4196575;28;19928;-60
2023/11/16 06:15:25;;;;;;;;;;;;;;;24.61;35.22;100889.16;4196322;28;19930;-60
2023/11/16 06:17:26;;;;;;;;;;;;;;;24.62;35.16;100876.56;4196236;28;20276;-60
2023/11/16 06:19:28;;;;;;;;;;;;;;;24.62;35.34;100855.91;4196437;28;19943;-60
2023/11/16 06:21:29;;;;;;;;;;;;;;;24.63;35.47;100841.47;4196440;28;19964;-60
2023/11/16 06:23:32;;;;;;;;;;;;;;;24.64;35.37;100826.16;4196405;28;19963;-60
2023/11/16 06:25:34;;;;;;;;;;;;;;;24.63;35.49;100816.41;4196231;28;20342;-60
2023/11/16 06:27:37;;;;;;;;;;;;;;;24.62;35.40;100817.38;4196545;28;19924;-60
2023/11/16 06:29:38;;;;;;;;;;;;;;;24.60;35.12;100811.34;4196386;28;19927;-60
2023/11/16 06:31:41;;;;;;;;;;;;;;;24.58;35.15;100814.13;4196380;28;19951;-60
2023/11/16 06:33:43;;;;;;;;;;;;;;;24.58;35.43;100800.69;4195078;28;19947;-60
2023/11/16 06:35:44;;;;;;;;;;;;;;;24.59;35.48;100791.63;4196218;28;19948;-60
2023/11/16 06:37:46;;;;;;;;;;;;;;;24.60;35.45;100784.44;4196421;28;19920;-60
2023/11/16 06:39:48;;;;;;;;;;;;;;;24.61;35.48;100762.78;4195891;28;20402;-60
2023/11/16 06:41:50;;;;;;;;;;;;;;;24.62;35.48;100742.09;4196376;28;19967;-60
2023/11/16 06:43:53;;;;;;;;;;;;;;;24.62;35.54;100742.97;4195881;28;19920;-60
2023/11/16 06:45:59;;;;;;;;;;;;;;;24.62;35.56;100742.09;4196062;28;19924;-60
2023/11/16 06:48:01;;;;;;;;;;;;;;;24.62;35.37;100742.09;4196285;28;20395;-60
2023/11/16 06:50:04;;;;;;;;;;;;;;;24.61;35.44;100735.88;4195920;28;19963;-61
2023/11/16 06:52:06;;;;;;;;;;;;;;;24.61;35.32;100730.50;4196241;28;19985;-60
2023/11/16 06:54:11;;;;;;;;;;;;;;;24.59;35.59;100718.22;4196044;28;19956;-61
2023/11/16 06:56:12;;;;;;;;;;;;;;;24.56;35.60;100708.59;4196119;28;19947;-61
2023/11/16 06:58:14;;;;;;;;;;;;;;;24.55;35.26;100696.97;4196253;28;19939;-61
2023/11/16 07:00:16;;;;;;;;;;;;;;;24.56;35.57;100689.78;4196198;28;19989;-60
2023/11/16 07:02:22;;;;;;;;;;;;;;;24.59;35.65;100683.25;4196426;28;19924;-60
2023/11/16 07:04:25;;;;;;;;;;;;;;;24.58;35.78;100666.25;4199404;28;19920;-60
2023/11/16 07:06:29;;;;;;;;;;;;;;;24.59;35.23;100659.03;4199481;28;19921;-61
2023/11/16 07:08:30;;;;;;;;;;;;;;;24.59;35.61;100649.13;4198852;28;19920;-60
2023/11/16 07:10:32;;;;;;;;;;;;;;;24.58;35.66;100638.53;4199127;28;19971;-60
2023/11/16 07:12:34;;;;;;;;;;;;;;;24.54;35.67;100620.00;4197992;28;19952;-59
2023/11/16 07:14:35;;;;;;;;;;;;;;;24.51;35.68;100617.63;4199428;28;19920;-60
2023/11/16 07:16:53;;;;;;;;;;;;;;;24.49;35.72;100619.59;4198178;28;19946;-61
2023/11/16 07:18:55;;;;;;;;;;;;;;;24.45;35.54;100623.59;4198992;28;19947;-61
2023/11/16 07:20:57;;;;;;;;;;;;;;;24.44;35.86;100623.75;4199067;28;19925;-58
2023/11/16 07:22:59;;;;;;;;;;;;;;;24.43;35.63;100616.66;4198773;28;19920;-61
2023/11/16 07:25:04;;;;;;;;;;;;;;;24.36;35.69;100590.38;4197769;28;19943;-59
2023/11/16 07:27:08;;;;;;;;;;;;;;;24.42;35.69;100593.47;4198905;28;19951;-60
2023/11/16 07:29:09;;;;;;;;;;;;;;;24.40;35.75;100577.50;4198853;28;19920;-60
2023/11/16 07:31:16;;;;;;;;;;;;;;;24.40;35.79;100547.94;4198995;28;20439;-60
2023/11/16 07:33:17;;;;;;;;;;;;;;;24.39;35.94;100538.16;4198856;28;19954;-60
2023/11/16 07:35:19;;;;;;;;;;;;;;;24.37;35.84;100540.16;4198888;28;19931;-59
2023/11/16 07:37:21;;;;;;;;;;;;;;;24.37;35.68;100540.16;4198384;28;20302;-60
2023/11/16 07:39:24;;;;;;;;;;;;;;;24.33;35.95;100531.53;4198874;28;19924;-61
2023/11/16 07:41:30;;;;;;;;;;;;;;;24.34;36.19;100527.00;4198742;28;19959;-61
2023/11/16 07:43:32;;;;;;;;;;;;;;;24.35;35.78;100536.75;4198624;28;19920;-60
2023/11/16 07:45:34;;;;;;;;;;;;;;;24.38;35.90;100544.53;4197518;28;19924;-61
2023/11/16 07:47:37;;;;;;;;;;;;;;;24.41;35.85;100544.22;4197468;28;20011;-60
2023/11/16 07:49:39;;;;;;;;;;;;;;;24.45;36.05;100544.75;4198388;28;20390;-61
2023/11/16 07:51:40;;;;;;;;;;;;;;;24.43;35.53;100542.22;4198409;28;19951;-61
2023/11/16 07:53:50;;;;;;;;;;;;;;;24.44;35.88;100526.97;4198665;28;19973;-61
2023/11/16 07:55:53;;;;;;;;;;;;;;;24.45;35.80;100536.69;4198277;28;19928;-61
2023/11/16 07:57:55;;;;;;;;;;;;;;;24.44;35.71;100537.72;4198404;28;19924;-61
2023/11/16 07:59:59;;;;;;;;;;;;;;;24.43;35.96;100547.59;4198421;28;19926;-61
2023/11/16 08:02:01;;;;;;;;;;;;;;;24.42;35.67;100566.59;4198298;28;19963;-60
2023/11/16 08:04:04;;;;;;;;;;;;;;;24.45;35.96;100571.66;4198267;28;19938;-61
2023/11/16 08:06:12;;;;;;;;;;;;;;;24.48;35.83;100569.50;4198204;28;19924;-61
2023/11/16 08:08:15;;;;;;;;;;;;;;;24.53;35.44;100574.44;4198204;28;19951;-61
2023/11/16 08:10:16;;;;;;;;;;;;;;;24.58;35.60;100572.16;4198336;28;19934;-60
2023/11/16 08:12:18;;;;;;;;;;;;;;;24.62;35.66;100565.50;4198009;28;20007;-60
2023/11/16 08:14:22;;;;;;;;;;;;;;;24.63;35.48;100559.13;4197600;28;19921;-60
2023/11/16 08:16:23;;;;;;;;;;;;;;;24.62;35.40;100553.88;4198212;28;20027;-60
2023/11/16 08:18:25;;;;;;;;;;;;;;;24.62;35.53;100554.72;4198321;28;19921;-61
2023/11/16 08:20:29;;;;;;;;;;;;;;;24.58;35.75;100550.63;4196463;28;20007;-61
2023/11/16 08:22:33;;;;;;;;;;;;;;;24.56;35.71;100544.59;4198069;28;20434;-61
2023/11/16 08:24:34;;;;;;;;;;;;;;;24.54;35.45;100528.56;4197713;28;20027;-60
2023/11/16 08:26:37;;;;;;;;;;;;;;;24.54;35.88;100523.19;4198043;28;19962;-60
2023/11/16 08:28:40;;;;;;;;;;;;;;;24.54;35.57;100515.13;4198227;28;19924;-61
2023/11/16 08:30:45;;;;;;;;;;;;;;;24.58;35.74;100504.09;4196515;28;19931;-60
2023/11/16 08:32:47;;;;;;;;;;;;;;;24.59;35.48;100495.03;4197729;28;20015;-61
2023/11/16 08:34:48;;;;;;;;;;;;;;;24.59;35.72;100487.81;4197784;28;20003;-61
2023/11/16 08:36:50;;;;;;;;;;;;;;;24.59;35.74;100490.50;4197946;28;19978;-61
2023/11/16 08:38:52;;;;;;;;;;;;;;;24.56;35.56;100491.63;4198028;28;19924;-60
2023/11/16 08:40:55;;;;;;;;;;;;;;;24.54;35.55;100504.38;4197739;28;20003;-61
2023/11/16 08:42:57;;;;;;;;;;;;;;;24.53;35.62;100493.78;4197829;28;19920;-60
2023/11/16 08:44:59;;;;;;;;;;;;;;;24.52;35.59;100495.63;4197649;28;19927;-60
2023/11/16 08:47:04;;;;;;;;;;;;;;;24.51;35.80;100496.63;4197673;28;19964;-60
2023/11/16 08:49:05;;;;;;;;;;;;;;;24.52;35.87;100492.09;4197337;28;20379;-59
2023/11/16 08:51:07;;;;;;;;;;;;;;;24.53;35.77;100474.97;4197308;28;19920;-59
2023/11/16 08:53:08;;;;;;;;;;;;;;;24.53;35.82;100465.06;4197695;28;20011;-60
2023/11/16 08:55:13;;;;;;;;;;;;;;;24.56;35.54;100455.84;4197525;28;19951;-59
2023/11/16 08:57:16;;;;;;;;;;;;;;;24.57;35.57;100454.88;4196103;28;19927;-60
2023/11/16 08:59:19;;;;;;;;;;;;;;;24.56;35.81;100445.09;4197333;28;19931;-60
2023/11/16 09:01:21;;;;;;;;;;;;;;;24.55;35.93;100438.88;4196072;28;20327;-60
2023/11/16 09:03:25;;;;;;;;;;;;;;;24.54;35.55;100436.34;4197149;28;19999;-60
2023/11/16 09:05:31;;;;;;;;;;;;;;;24.51;35.48;100437.50;4197285;28;19970;-60
2023/11/16 09:07:34;;;;;;;;;;;;;;;24.50;35.64;100426.91;4197325;28;20350;-59
2023/11/16 09:09:35;;;;;;;;;;;;;;;24.51;35.72;100409.75;4197342;28;19920;-59
2023/11/16 09:11:40;;;;;;;;;;;;;;;24.53;35.65;100405.06;4197397;28;19920;-61
2023/11/16 09:13:42;;;;;;;;;;;;;;;24.54;35.73;100382.56;4197370;28;19921;-60
2023/11/16 09:15:43;;;;;;;;;;;;;;;24.57;35.75;100366.13;4197409;28;19924;-58
2023/11/16 09:17:45;;;;;;;;;;;;;;;24.58;35.82;100345.47;4197215;28;20370;-60
2023/11/16 09:19:50;;;;;;;;;;;;;;;24.57;35.76;100336.56;4196964;28;19995;-60
2023/11/16 09:21:52;;;;;;;;;;;;;;;24.57;35.75;100331.19;4197443;28;20368;-60
2023/11/16 09:23:54;;;;;;;;;;;;;;;24.55;35.63;100325.94;4197176;28;19928;-60
2023/11/16 09:25:57;;;;;;;;;;;;;;;24.53;35.85;100322.59;4197177;28;19959;-60
2023/11/16 09:28:00;;;;;;;;;;;;;;;24.51;35.56;100319.19;4196933;28;19966;-60
2023/11/16 09:30:04;;;;;;;;;;;;;;;24.49;35.83;100301.53;4196970;28;19951;-60
2023/11/16 09:32:08;;;;;;;;;;;;;;;24.49;35.83;100307.75;4197352;28;20313;-60
2023/11/16 09:34:16;;;;;;;;;;;;;;;24.49;35.84;100296.16;4196690;28;19928;-60
2023/11/16 09:36:18;;;;;;;;;;;;;;;24.50;35.81;100293.31;4196926;28;19999;-60
2023/11/16 09:38:20;;;;;;;;;;;;;;;24.54;35.44;100275.03;4196900;28;19968;-60
2023/11/16 09:40:30;;;;;;;;;;;;;;;24.54;35.53;100257.03;4197028;28;19955;-59
2023/11/16 09:42:33;;;;;;;;;;;;;;;24.53;35.62;100241.06;4197087;28;19921;-60
2023/11/16 09:44:38;;;;;;;;;;;;;;;24.53;35.69;100228.50;4196818;28;20282;-60
2023/11/16 09:46:44;;;;;;;;;;;;;;;24.53;35.52;100230.31;4196818;28;20008;-60
2023/11/16 09:48:46;;;;;;;;;;;;;;;24.51;35.63;100217.03;4196435;28;19935;-60
2023/11/16 09:50:49;;;;;;;;;;;;;;;24.51;35.88;100210.81;4196605;28;20338;-60
2023/11/16 09:52:51;;;;;;;;;;;;;;;24.50;35.85;100214.53;4196518;28;19921;-59
2023/11/16 09:55:00;;;;;;;;;;;;;;;24.49;35.81;100208.28;4196794;28;19920;-60
2023/11/16 09:57:02;;;;;;;;;;;;;;;24.51;35.72;100187.47;4196435;28;19920;-59
2023/11/16 09:59:13;;;;;;;;;;;;;;;24.52;35.92;100182.94;4196023;28;19973;-58
2023/11/16 10:01:17;;;;;;;;;;;;;;;24.52;35.68;100167.66;4196093;28;19927;-59
2023/11/16 10:03:22;;;;;;;;;;;;;;;24.54;35.61;100152.19;4195753;28;19928;-61
2023/11/16 10:05:26;;;;;;;;;;;;;;;24.56;35.75;100146.69;4196627;28;19924;-59
2023/11/16 10:07:28;;;;;;;;;;;;;;;24.56;35.80;100146.69;4196737;28;19921;-60
2023/11/16 10:09:39;;;;;;;;;;;;;;;24.56;35.52;100141.31;4196073;28;19928;-59
2023/11/16 10:11:41;;;;;;;;;;;;;;;24.55;35.57;100136.91;4189721;28;20002;-60
2023/11/16 10:13:51;;;;;;;;;;;;;;;24.53;35.88;100125.47;4196530;28;19920;-60
2023/11/16 10:15:53;;;;;;;;;;;;;;;24.50;35.94;100121.28;4196054;28;20349;-59
2023/11/16 10:17:55;;;;;;;;;;;;;;;24.50;35.65;100128.50;4196514;28;20365;-60
2023/11/16 10:19:57;;;;;;;;;;;;;;;24.50;35.35;100123.13;4185135;28;19963;-61
2023/11/16 10:21:59;;;;;;;;;;;;;;;24.51;35.62;100114.03;4183556;28;19944;-60
2023/11/16 10:24:10;;;;;;;;;;;;;;;24.54;35.45;100114.56;4180014;28;20011;-58
2023/11/16 10:26:13;;;;;;;;;;;;;;;24.56;35.30;100107.19;4179721;28;19978;-60
2023/11/16 10:28:19;;;;;;;;;;;;;;;24.56;35.61;100092.91;4179348;28;19925;-60
2023/11/16 10:30:21;;;;;;;;;;;;;;;24.56;35.33;100098.28;4186600;28;19928;-57